createdAt,value
2023-12-18T00:04:55.419Z,1.90
2023-12-18T00:19:58.058Z,1.97
2023-12-18T00:35:00.618Z,2.23
2023-12-18T00:50:05.411Z,2.40
2023-12-18T01:05:11.069Z,2.00
2023-12-18T01:20:13.785Z,1.90
2023-12-18T01:35:15.496Z,2.10
2023-12-18T01:50:17.583Z,2.40
2023-12-18T02:05:20.161Z,2.27
2023-12-18T02:20:22.975Z,1.90
2023-12-18T02:35:25.555Z,1.93
2023-12-18T02:50:28.103Z,1.70
2023-12-18T03:05:30.765Z,1.90
2023-12-18T03:20:33.461Z,1.60
2023-12-18T03:35:36.833Z,1.87
2023-12-18T03:50:39.373Z,1.80
2023-12-18T04:05:43.033Z,1.67
2023-12-18T04:20:45.580Z,1.90
2023-12-18T04:35:47.279Z,1.70
2023-12-18T04:50:49.804Z,1.53
2023-12-18T05:05:52.391Z,1.77
2023-12-18T05:20:54.937Z,1.43
2023-12-18T05:35:57.531Z,1.70
2023-12-18T05:50:59.274Z,1.50
2023-12-18T06:06:00.942Z,1.60
2023-12-18T06:21:07.688Z,1.77
2023-12-18T06:36:10.387Z,1.50
2023-12-18T06:51:13.118Z,1.60
2023-12-18T07:06:15.834Z,1.63
2023-12-18T07:21:18.827Z,1.80
2023-12-18T07:36:21.556Z,1.57
2023-12-18T07:51:24.393Z,1.97
2023-12-18T08:06:26.964Z,1.50
2023-12-18T08:21:30.029Z,1.70
2023-12-18T08:36:32.609Z,1.40
2023-12-18T08:51:35.463Z,1.53
2023-12-18T09:06:38.833Z,1.50
2023-12-18T09:21:42.152Z,1.50
2023-12-18T09:36:48.502Z,2.27
2023-12-18T09:51:54.300Z,2.37
2023-12-18T10:06:56.801Z,2.00
2023-12-18T10:22:00.213Z,2.03
2023-12-18T10:37:02.629Z,2.07
2023-12-18T10:52:06.680Z,2.20
2023-12-18T11:07:09.957Z,2.30
2023-12-18T11:22:12.904Z,1.87
2023-12-18T11:37:14.685Z,2.07
2023-12-18T11:52:18.330Z,1.90
2023-12-18T12:07:21.066Z,2.10
2023-12-18T12:22:24.212Z,2.20
2023-12-18T12:37:25.974Z,1.97
2023-12-18T12:52:30.969Z,2.30
2023-12-18T13:07:34.337Z,2.00
2023-12-18T13:22:37.913Z,1.90
2023-12-18T13:37:41.940Z,2.00
2023-12-18T13:52:44.300Z,1.97
2023-12-18T14:07:47.155Z,2.13
2023-12-18T14:22:50.481Z,2.00
2023-12-18T14:37:53.014Z,2.03
2023-12-18T14:52:56.703Z,2.70
2023-12-18T15:08:00.067Z,2.27
2023-12-18T15:23:02.675Z,2.00
2023-12-18T15:38:05.525Z,2.03
2023-12-18T15:53:08.317Z,2.00
2023-12-18T16:08:11.075Z,2.07
2023-12-18T16:23:14.515Z,3.00
2023-12-18T16:38:17.809Z,3.33
2023-12-18T16:53:20.672Z,3.77
2023-12-18T17:08:24.623Z,4.13
2023-12-18T17:23:27.655Z,4.27
2023-12-18T17:38:30.873Z,4.27
2023-12-18T17:53:33.383Z,4.00
2023-12-18T18:08:35.200Z,3.50
2023-12-18T18:23:38.888Z,3.63
2023-12-18T18:38:40.648Z,3.13
2023-12-18T18:53:42.603Z,2.97
2023-12-18T19:08:45.180Z,2.83
2023-12-18T19:23:46.844Z,2.87
2023-12-18T19:38:49.140Z,3.00
2023-12-18T19:53:55.670Z,2.90
2023-12-18T20:08:58.350Z,2.53
2023-12-18T20:24:01.275Z,2.57
2023-12-18T20:39:04.178Z,2.80
2023-12-18T20:54:05.891Z,2.57
2023-12-18T21:09:07.952Z,3.17
2023-12-18T21:24:10.592Z,2.93
2023-12-18T21:39:12.310Z,3.07
2023-12-18T21:54:14.316Z,2.80
2023-12-18T22:09:16.846Z,2.60
2023-12-18T22:24:19.637Z,2.80
2023-12-18T22:39:22.277Z,2.63
2023-12-18T22:54:24.923Z,2.60
2023-12-18T23:09:28.856Z,2.43
2023-12-18T23:24:31.500Z,2.40
2023-12-18T23:39:33.248Z,2.43
2023-12-18T23:54:34.959Z,2.47
